sensor_id;sensor_type;location;lat;lon;timestamp;temperature;humidity
10660;DHT22;5378;53.206;13.316;2024-02-26T00:02:41;3.40;99.90
10660;DHT22;5378;53.206;13.316;2024-02-26T00:05:28;3.30;99.90
10660;DHT22;5378;53.206;13.316;2024-02-26T00:08:15;3.10;99.90
10660;DHT22;5378;53.206;13.316;2024-02-26T00:11:04;3.10;99.90
10660;DHT22;5378;53.206;13.316;2024-02-26T00:13:51;3.10;99.90
10660;DHT22;5378;53.206;13.316;2024-02-26T00:16:39;3.10;99.90
10660;DHT22;5378;53.206;13.316;2024-02-26T00:19:27;3.00;99.90
10660;DHT22;5378;53.206;13.316;2024-02-26T00:22:14;3.00;99.90
10660;DHT22;5378;53.206;13.316;2024-02-26T00:25:01;2.90;99.90
10660;DHT22;5378;53.206;13.316;2024-02-26T00:27:50;2.80;99.90
10660;DHT22;5378;53.206;13.316;2024-02-26T00:30:37;2.80;99.90
10660;DHT22;5378;53.206;13.316;2024-02-26T00:33:24;2.80;99.90
10660;DHT22;5378;53.206;13.316;2024-02-26T00:36:11;2.70;99.90
10660;DHT22;5378;53.206;13.316;2024-02-26T00:38:58;2.60;99.90
10660;DHT22;5378;53.206;13.316;2024-02-26T00:41:45;2.60;99.90
10660;DHT22;5378;53.206;13.316;2024-02-26T00:44:33;2.60;99.90
10660;DHT22;5378;53.206;13.316;2024-02-26T00:47:20;2.60;99.90
10660;DHT22;5378;53.206;13.316;2024-02-26T00:50:08;2.60;99.90
10660;DHT22;5378;53.206;13.316;2024-02-26T00:52:55;2.40;99.90
10660;DHT22;5378;53.206;13.316;2024-02-26T00:55:42;2.40;99.90
10660;DHT22;5378;53.206;13.316;2024-02-26T00:58:29;2.40;99.90
10660;DHT22;5378;53.206;13.316;2024-02-26T01:01:17;2.40;99.90
10660;DHT22;5378;53.206;13.316;2024-02-26T01:04:04;2.30;99.90
10660;DHT22;5378;53.206;13.316;2024-02-26T01:06:51;2.30;99.90
10660;DHT22;5378;53.206;13.316;2024-02-26T01:09:38;2.30;99.90
10660;DHT22;5378;53.206;13.316;2024-02-26T01:12:25;2.20;99.90
10660;DHT22;5378;53.206;13.316;2024-02-26T01:15:12;2.20;99.90
10660;DHT22;5378;53.206;13.316;2024-02-26T01:18:01;2.10;99.90
10660;DHT22;5378;53.206;13.316;2024-02-26T01:20:48;2.10;99.90
10660;DHT22;5378;53.206;13.316;2024-02-26T01:23:35;2.10;99.90
10660;DHT22;5378;53.206;13.316;2024-02-26T01:26:22;2.00;99.90
10660;DHT22;5378;53.206;13.316;2024-02-26T01:29:09;2.00;99.90
10660;DHT22;5378;53.206;13.316;2024-02-26T01:31:56;1.90;99.90
10660;DHT22;5378;53.206;13.316;2024-02-26T01:34:44;1.90;99.90
10660;DHT22;5378;53.206;13.316;2024-02-26T01:37:31;1.90;99.90
10660;DHT22;5378;53.206;13.316;2024-02-26T01:40:19;1.80;99.90
10660;DHT22;5378;53.206;13.316;2024-02-26T01:43:06;1.80;99.90
10660;DHT22;5378;53.206;13.316;2024-02-26T01:45:53;1.90;99.90
10660;DHT22;5378;53.206;13.316;2024-02-26T01:48:41;1.90;99.90
10660;DHT22;5378;53.206;13.316;2024-02-26T01:51:32;1.90;99.90
10660;DHT22;5378;53.206;13.316;2024-02-26T01:54:20;1.80;99.90
10660;DHT22;5378;53.206;13.316;2024-02-26T01:57:09;1.80;99.90
10660;DHT22;5378;53.206;13.316;2024-02-26T01:59:56;1.70;99.90
10660;DHT22;5378;53.206;13.316;2024-02-26T02:02:44;1.70;99.90
10660;DHT22;5378;53.206;13.316;2024-02-26T02:05:33;1.60;99.90
10660;DHT22;5378;53.206;13.316;2024-02-26T02:08:22;1.60;99.90
10660;DHT22;5378;53.206;13.316;2024-02-26T02:11:10;1.60;99.90
10660;DHT22;5378;53.206;13.316;2024-02-26T02:13:58;1.60;99.90
10660;DHT22;5378;53.206;13.316;2024-02-26T02:16:46;1.60;99.90
10660;DHT22;5378;53.206;13.316;2024-02-26T02:19:33;1.50;99.90
10660;DHT22;5378;53.206;13.316;2024-02-26T02:22:22;1.60;99.90
10660;DHT22;5378;53.206;13.316;2024-02-26T02:25:09;1.50;99.90
10660;DHT22;5378;53.206;13.316;2024-02-26T02:27:56;1.50;99.90
10660;DHT22;5378;53.206;13.316;2024-02-26T02:30:44;1.50;99.90
10660;DHT22;5378;53.206;13.316;2024-02-26T02:33:32;1.50;99.90
10660;DHT22;5378;53.206;13.316;2024-02-26T02:36:19;1.50;99.90
10660;DHT22;5378;53.206;13.316;2024-02-26T02:39:07;1.50;99.90
10660;DHT22;5378;53.206;13.316;2024-02-26T02:41:54;1.50;99.90
10660;DHT22;5378;53.206;13.316;2024-02-26T02:44:41;1.50;99.90
10660;DHT22;5378;53.206;13.316;2024-02-26T02:47:30;1.50;99.90
10660;DHT22;5378;53.206;13.316;2024-02-26T02:50:17;1.40;99.90
10660;DHT22;5378;53.206;13.316;2024-02-26T02:53:04;1.40;99.90
10660;DHT22;5378;53.206;13.316;2024-02-26T02:55:52;1.40;99.90
10660;DHT22;5378;53.206;13.316;2024-02-26T02:58:39;1.30;99.90
10660;DHT22;5378;53.206;13.316;2024-02-26T03:01:26;1.40;99.90
10660;DHT22;5378;53.206;13.316;2024-02-26T03:04:13;1.40;99.90
10660;DHT22;5378;53.206;13.316;2024-02-26T03:07:00;1.40;99.90
10660;DHT22;5378;53.206;13.316;2024-02-26T03:09:47;1.40;99.90
10660;DHT22;5378;53.206;13.316;2024-02-26T03:12:35;1.30;99.90
10660;DHT22;5378;53.206;13.316;2024-02-26T03:15:22;1.30;99.90
10660;DHT22;5378;53.206;13.316;2024-02-26T03:18:10;1.30;99.90
10660;DHT22;5378;53.206;13.316;2024-02-26T03:20:57;1.10;99.90
10660;DHT22;5378;53.206;13.316;2024-02-26T03:23:44;1.30;99.90
10660;DHT22;5378;53.206;13.316;2024-02-26T03:26:31;1.20;99.90
10660;DHT22;5378;53.206;13.316;2024-02-26T03:29:19;1.10;99.90
10660;DHT22;5378;53.206;13.316;2024-02-26T03:32:06;1.10;99.90
10660;DHT22;5378;53.206;13.316;2024-02-26T03:34:53;1.20;99.90
10660;DHT22;5378;53.206;13.316;2024-02-26T03:37:41;1.30;99.90
10660;DHT22;5378;53.206;13.316;2024-02-26T03:40:28;1.20;99.90
10660;DHT22;5378;53.206;13.316;2024-02-26T03:43:16;1.30;99.90
10660;DHT22;5378;53.206;13.316;2024-02-26T03:46:07;1.30;99.90
10660;DHT22;5378;53.206;13.316;2024-02-26T03:48:54;1.30;99.90
10660;DHT22;5378;53.206;13.316;2024-02-26T03:51:41;1.20;99.90
10660;DHT22;5378;53.206;13.316;2024-02-26T03:54:28;1.20;99.90
10660;DHT22;5378;53.206;13.316;2024-02-26T03:57:15;1.20;99.90
10660;DHT22;5378;53.206;13.316;2024-02-26T04:00:03;1.20;99.90
10660;DHT22;5378;53.206;13.316;2024-02-26T04:02:57;1.10;99.90
10660;DHT22;5378;53.206;13.316;2024-02-26T04:05:44;1.20;99.90
10660;DHT22;5378;53.206;13.316;2024-02-26T04:08:31;1.20;99.90
10660;DHT22;5378;53.206;13.316;2024-02-26T04:11:18;1.20;99.90
10660;DHT22;5378;53.206;13.316;2024-02-26T04:14:06;1.10;99.90
10660;DHT22;5378;53.206;13.316;2024-02-26T04:16:54;1.10;99.90
10660;DHT22;5378;53.206;13.316;2024-02-26T04:19:43;1.00;99.90
10660;DHT22;5378;53.206;13.316;2024-02-26T04:22:30;1.00;99.90
10660;DHT22;5378;53.206;13.316;2024-02-26T04:25:18;1.00;99.90
10660;DHT22;5378;53.206;13.316;2024-02-26T04:28:05;1.00;99.90
10660;DHT22;5378;53.206;13.316;2024-02-26T04:30:52;1.00;99.90
10660;DHT22;5378;53.206;13.316;2024-02-26T04:33:39;1.00;99.90
10660;DHT22;5378;53.206;13.316;2024-02-26T04:36:29;1.10;99.90
10660;DHT22;5378;53.206;13.316;2024-02-26T04:39:16;1.00;99.90
10660;DHT22;5378;53.206;13.316;2024-02-26T04:42:04;1.10;99.90
10660;DHT22;5378;53.206;13.316;2024-02-26T04:44:51;1.10;99.90
10660;DHT22;5378;53.206;13.316;2024-02-26T04:47:38;1.10;99.90
10660;DHT22;5378;53.206;13.316;2024-02-26T04:50:25;1.10;99.90
10660;DHT22;5378;53.206;13.316;2024-02-26T04:53:14;1.00;99.90
10660;DHT22;5378;53.206;13.316;2024-02-26T04:56:01;1.00;99.90
10660;DHT22;5378;53.206;13.316;2024-02-26T04:58:48;0.90;99.90
10660;DHT22;5378;53.206;13.316;2024-02-26T05:01:36;1.00;99.90
10660;DHT22;5378;53.206;13.316;2024-02-26T05:04:23;1.00;99.90
10660;DHT22;5378;53.206;13.316;2024-02-26T05:07:10;1.10;99.90
10660;DHT22;5378;53.206;13.316;2024-02-26T05:09:59;1.00;99.90
10660;DHT22;5378;53.206;13.316;2024-02-26T05:12:46;1.00;99.90
10660;DHT22;5378;53.206;13.316;2024-02-26T05:15:34;1.10;99.90
10660;DHT22;5378;53.206;13.316;2024-02-26T05:18:22;1.00;99.90
10660;DHT22;5378;53.206;13.316;2024-02-26T05:21:09;1.00;99.90
10660;DHT22;5378;53.206;13.316;2024-02-26T05:23:56;1.00;99.90
10660;DHT22;5378;53.206;13.316;2024-02-26T05:26:45;1.00;99.90
10660;DHT22;5378;53.206;13.316;2024-02-26T05:29:32;0.90;99.90
10660;DHT22;5378;53.206;13.316;2024-02-26T05:32:20;1.00;99.90
10660;DHT22;5378;53.206;13.316;2024-02-26T05:35:07;1.10;99.90
10660;DHT22;5378;53.206;13.316;2024-02-26T05:37:54;1.00;99.90
10660;DHT22;5378;53.206;13.316;2024-02-26T05:40:41;1.00;99.90
10660;DHT22;5378;53.206;13.316;2024-02-26T05:43:30;1.00;99.90
10660;DHT22;5378;53.206;13.316;2024-02-26T05:46:17;1.00;99.90
10660;DHT22;5378;53.206;13.316;2024-02-26T05:49:04;1.10;99.90
10660;DHT22;5378;53.206;13.316;2024-02-26T05:51:52;1.10;99.90
10660;DHT22;5378;53.206;13.316;2024-02-26T05:54:40;1.10;99.90
10660;DHT22;5378;53.206;13.316;2024-02-26T05:57:27;1.10;99.90
10660;DHT22;5378;53.206;13.316;2024-02-26T06:00:16;1.10;99.90
10660;DHT22;5378;53.206;13.316;2024-02-26T06:03:03;1.10;99.90
10660;DHT22;5378;53.206;13.316;2024-02-26T06:05:50;1.20;99.90
10660;DHT22;5378;53.206;13.316;2024-02-26T06:08:37;1.30;99.90
10660;DHT22;5378;53.206;13.316;2024-02-26T06:11:24;1.30;99.90
10660;DHT22;5378;53.206;13.316;2024-02-26T06:14:11;1.40;99.90
10660;DHT22;5378;53.206;13.316;2024-02-26T06:17:01;1.40;99.90
10660;DHT22;5378;53.206;13.316;2024-02-26T06:19:49;1.50;99.90
10660;DHT22;5378;53.206;13.316;2024-02-26T06:22:36;1.50;99.90
10660;DHT22;5378;53.206;13.316;2024-02-26T06:25:23;1.40;99.90
10660;DHT22;5378;53.206;13.316;2024-02-26T06:28:11;1.50;99.90
10660;DHT22;5378;53.206;13.316;2024-02-26T06:30:59;1.60;99.90
10660;DHT22;5378;53.206;13.316;2024-02-26T06:33:47;1.50;99.90
10660;DHT22;5378;53.206;13.316;2024-02-26T06:36:34;1.60;99.90
10660;DHT22;5378;53.206;13.316;2024-02-26T06:39:22;1.70;99.90
10660;DHT22;5378;53.206;13.316;2024-02-26T06:42:09;1.80;99.90
10660;DHT22;5378;53.206;13.316;2024-02-26T06:44:56;1.80;99.90
10660;DHT22;5378;53.206;13.316;2024-02-26T06:47:43;2.00;99.90
10660;DHT22;5378;53.206;13.316;2024-02-26T06:50:32;2.00;99.90
10660;DHT22;5378;53.206;13.316;2024-02-26T06:53:20;2.00;99.90
10660;DHT22;5378;53.206;13.316;2024-02-26T06:56:07;2.00;99.90
10660;DHT22;5378;53.206;13.316;2024-02-26T06:58:54;2.10;99.90
10660;DHT22;5378;53.206;13.316;2024-02-26T07:01:42;2.20;99.90
10660;DHT22;5378;53.206;13.316;2024-02-26T07:04:29;2.30;99.90
10660;DHT22;5378;53.206;13.316;2024-02-26T07:07:21;2.40;99.90
10660;DHT22;5378;53.206;13.316;2024-02-26T07:10:10;2.50;99.90
10660;DHT22;5378;53.206;13.316;2024-02-26T07:12:58;2.60;99.90
10660;DHT22;5378;53.206;13.316;2024-02-26T07:15:45;2.70;99.90
10660;DHT22;5378;53.206;13.316;2024-02-26T07:18:32;2.90;99.90
10660;DHT22;5378;53.206;13.316;2024-02-26T07:21:19;3.00;99.90
10660;DHT22;5378;53.206;13.316;2024-02-26T07:24:08;3.10;99.90
10660;DHT22;5378;53.206;13.316;2024-02-26T07:26:55;3.20;99.90
10660;DHT22;5378;53.206;13.316;2024-02-26T07:29:42;3.30;99.90
10660;DHT22;5378;53.206;13.316;2024-02-26T07:32:29;3.50;99.90
10660;DHT22;5378;53.206;13.316;2024-02-26T07:35:16;3.40;99.90
10660;DHT22;5378;53.206;13.316;2024-02-26T07:38:04;3.50;99.90
10660;DHT22;5378;53.206;13.316;2024-02-26T07:40:52;3.70;99.90
10660;DHT22;5378;53.206;13.316;2024-02-26T07:43:40;3.80;99.90
10660;DHT22;5378;53.206;13.316;2024-02-26T07:46:27;3.90;99.90
10660;DHT22;5378;53.206;13.316;2024-02-26T07:49:15;3.90;99.90
10660;DHT22;5378;53.206;13.316;2024-02-26T07:52:02;4.00;99.90
10660;DHT22;5378;53.206;13.316;2024-02-26T07:54:49;4.10;99.90
10660;DHT22;5378;53.206;13.316;2024-02-26T07:57:37;4.10;99.90
10660;DHT22;5378;53.206;13.316;2024-02-26T08:00:25;4.30;99.90
10660;DHT22;5378;53.206;13.316;2024-02-26T08:03:12;4.50;99.90
10660;DHT22;5378;53.206;13.316;2024-02-26T08:06:01;4.70;99.90
10660;DHT22;5378;53.206;13.316;2024-02-26T08:08:48;4.80;99.90
10660;DHT22;5378;53.206;13.316;2024-02-26T08:11:35;4.90;99.90
10660;DHT22;5378;53.206;13.316;2024-02-26T08:14:23;4.80;99.90
10660;DHT22;5378;53.206;13.316;2024-02-26T08:17:11;4.90;99.90
10660;DHT22;5378;53.206;13.316;2024-02-26T08:19:58;5.00;99.90
10660;DHT22;5378;53.206;13.316;2024-02-26T08:22:45;5.20;99.90
10660;DHT22;5378;53.206;13.316;2024-02-26T08:25:32;5.30;99.90
10660;DHT22;5378;53.206;13.316;2024-02-26T08:28:19;5.60;99.90
10660;DHT22;5378;53.206;13.316;2024-02-26T08:31:07;5.80;99.90
10660;DHT22;5378;53.206;13.316;2024-02-26T08:33:55;6.10;99.90
10660;DHT22;5378;53.206;13.316;2024-02-26T08:36:42;6.50;99.90
10660;DHT22;5378;53.206;13.316;2024-02-26T08:39:30;7.20;99.90
10660;DHT22;5378;53.206;13.316;2024-02-26T08:42:17;7.90;99.90
10660;DHT22;5378;53.206;13.316;2024-02-26T08:45:05;8.10;99.90
10660;DHT22;5378;53.206;13.316;2024-02-26T08:47:54;8.40;99.90
10660;DHT22;5378;53.206;13.316;2024-02-26T08:50:41;8.50;99.90
10660;DHT22;5378;53.206;13.316;2024-02-26T08:53:28;8.50;99.90
10660;DHT22;5378;53.206;13.316;2024-02-26T08:56:16;8.30;99.90
10660;DHT22;5378;53.206;13.316;2024-02-26T08:59:08;7.90;99.90
10660;DHT22;5378;53.206;13.316;2024-02-26T09:01:55;7.80;99.90
10660;DHT22;5378;53.206;13.316;2024-02-26T09:04:44;7.80;99.90
10660;DHT22;5378;53.206;13.316;2024-02-26T09:07:31;7.70;99.90
10660;DHT22;5378;53.206;13.316;2024-02-26T09:10:18;7.70;99.90
10660;DHT22;5378;53.206;13.316;2024-02-26T09:13:05;7.70;99.90
10660;DHT22;5378;53.206;13.316;2024-02-26T09:15:52;7.70;99.90
10660;DHT22;5378;53.206;13.316;2024-02-26T09:18:40;7.80;99.90
10660;DHT22;5378;53.206;13.316;2024-02-26T09:21:28;8.00;99.90
10660;DHT22;5378;53.206;13.316;2024-02-26T09:24:16;8.20;99.90
10660;DHT22;5378;53.206;13.316;2024-02-26T09:27:04;8.40;99.90
10660;DHT22;5378;53.206;13.316;2024-02-26T09:29:51;8.50;99.90
10660;DHT22;5378;53.206;13.316;2024-02-26T09:32:38;8.80;99.90
10660;DHT22;5378;53.206;13.316;2024-02-26T09:35:25;8.80;99.90
10660;DHT22;5378;53.206;13.316;2024-02-26T09:38:14;8.90;99.90
10660;DHT22;5378;53.206;13.316;2024-02-26T09:41:01;8.90;99.90
10660;DHT22;5378;53.206;13.316;2024-02-26T09:43:49;8.70;99.90
10660;DHT22;5378;53.206;13.316;2024-02-26T09:46:39;8.70;99.90
10660;DHT22;5378;53.206;13.316;2024-02-26T09:49:27;8.80;99.90
10660;DHT22;5378;53.206;13.316;2024-02-26T09:52:15;8.90;99.90
10660;DHT22;5378;53.206;13.316;2024-02-26T09:55:04;8.90;99.90
10660;DHT22;5378;53.206;13.316;2024-02-26T09:57:53;8.80;99.90
10660;DHT22;5378;53.206;13.316;2024-02-26T10:00:41;8.90;99.90
10660;DHT22;5378;53.206;13.316;2024-02-26T10:03:42;9.00;99.90
10660;DHT22;5378;53.206;13.316;2024-02-26T10:06:31;8.90;99.90
10660;DHT22;5378;53.206;13.316;2024-02-26T10:09:19;9.10;99.90
10660;DHT22;5378;53.206;13.316;2024-02-26T10:12:10;9.20;99.90
10660;DHT22;5378;53.206;13.316;2024-02-26T10:14:57;9.40;99.90
10660;DHT22;5378;53.206;13.316;2024-02-26T10:17:44;9.40;99.90
10660;DHT22;5378;53.206;13.316;2024-02-26T10:20:32;9.30;99.90
10660;DHT22;5378;53.206;13.316;2024-02-26T10:23:19;9.20;99.90
10660;DHT22;5378;53.206;13.316;2024-02-26T10:26:07;9.40;99.90
10660;DHT22;5378;53.206;13.316;2024-02-26T10:28:59;9.30;99.90
10660;DHT22;5378;53.206;13.316;2024-02-26T10:31:47;9.30;99.90
10660;DHT22;5378;53.206;13.316;2024-02-26T10:34:35;9.20;99.90
10660;DHT22;5378;53.206;13.316;2024-02-26T10:37:23;9.10;99.90
10660;DHT22;5378;53.206;13.316;2024-02-26T10:40:12;9.20;99.90
10660;DHT22;5378;53.206;13.316;2024-02-26T10:42:59;9.30;99.90
10660;DHT22;5378;53.206;13.316;2024-02-26T10:45:48;9.30;99.90
10660;DHT22;5378;53.206;13.316;2024-02-26T10:48:35;9.30;99.90
10660;DHT22;5378;53.206;13.316;2024-02-26T10:51:26;9.50;99.90
10660;DHT22;5378;53.206;13.316;2024-02-26T10:54:15;9.60;99.90
10660;DHT22;5378;53.206;13.316;2024-02-26T10:57:04;9.70;99.90
10660;DHT22;5378;53.206;13.316;2024-02-26T10:59:53;9.70;99.90
10660;DHT22;5378;53.206;13.316;2024-02-26T11:02:44;9.80;99.90
10660;DHT22;5378;53.206;13.316;2024-02-26T11:05:33;9.80;99.90
10660;DHT22;5378;53.206;13.316;2024-02-26T11:08:21;9.80;99.90
10660;DHT22;5378;53.206;13.316;2024-02-26T11:11:09;9.80;99.90
10660;DHT22;5378;53.206;13.316;2024-02-26T11:14:01;9.80;99.90
10660;DHT22;5378;53.206;13.316;2024-02-26T11:16:50;9.80;99.90
10660;DHT22;5378;53.206;13.316;2024-02-26T11:19:41;9.90;99.90
10660;DHT22;5378;53.206;13.316;2024-02-26T11:22:28;10.00;99.90
10660;DHT22;5378;53.206;13.316;2024-02-26T11:25:15;9.90;99.90
10660;DHT22;5378;53.206;13.316;2024-02-26T11:28:05;9.80;99.90
10660;DHT22;5378;53.206;13.316;2024-02-26T11:30:53;9.80;99.90
10660;DHT22;5378;53.206;13.316;2024-02-26T11:33:41;9.90;99.90
10660;DHT22;5378;53.206;13.316;2024-02-26T11:36:29;9.90;99.90
10660;DHT22;5378;53.206;13.316;2024-02-26T11:39:16;10.00;99.90
10660;DHT22;5378;53.206;13.316;2024-02-26T11:42:05;9.90;99.90
10660;DHT22;5378;53.206;13.316;2024-02-26T11:44:52;9.90;99.90
10660;DHT22;5378;53.206;13.316;2024-02-26T11:47:41;9.90;99.90
10660;DHT22;5378;53.206;13.316;2024-02-26T11:50:36;10.00;99.90
10660;DHT22;5378;53.206;13.316;2024-02-26T11:53:26;10.00;99.90
10660;DHT22;5378;53.206;13.316;2024-02-26T11:56:21;10.00;99.90
10660;DHT22;5378;53.206;13.316;2024-02-26T11:59:10;10.10;99.90
10660;DHT22;5378;53.206;13.316;2024-02-26T12:01:59;10.20;99.90
10660;DHT22;5378;53.206;13.316;2024-02-26T12:04:49;10.30;99.90
10660;DHT22;5378;53.206;13.316;2024-02-26T12:07:36;10.30;99.90
10660;DHT22;5378;53.206;13.316;2024-02-26T12:10:26;10.40;99.90
10660;DHT22;5378;53.206;13.316;2024-02-26T12:13:15;10.30;99.90
10660;DHT22;5378;53.206;13.316;2024-02-26T12:16:03;10.30;99.90
10660;DHT22;5378;53.206;13.316;2024-02-26T12:18:50;10.30;99.90
10660;DHT22;5378;53.206;13.316;2024-02-26T12:21:37;10.30;99.90
10660;DHT22;5378;53.206;13.316;2024-02-26T12:24:24;10.40;99.90
10660;DHT22;5378;53.206;13.316;2024-02-26T12:27:13;10.50;99.90
10660;DHT22;5378;53.206;13.316;2024-02-26T12:30:01;10.50;99.90
10660;DHT22;5378;53.206;13.316;2024-02-26T12:32:50;10.50;99.90
10660;DHT22;5378;53.206;13.316;2024-02-26T12:35:38;10.60;99.90
10660;DHT22;5378;53.206;13.316;2024-02-26T12:38:26;10.50;99.90
10660;DHT22;5378;53.206;13.316;2024-02-26T12:41:14;10.30;99.90
10660;DHT22;5378;53.206;13.316;2024-02-26T12:44:03;10.40;99.90
10660;DHT22;5378;53.206;13.316;2024-02-26T12:46:50;10.50;99.90
10660;DHT22;5378;53.206;13.316;2024-02-26T12:49:37;10.40;99.90
10660;DHT22;5378;53.206;13.316;2024-02-26T12:52:24;10.30;99.90
10660;DHT22;5378;53.206;13.316;2024-02-26T12:55:15;10.30;99.90
10660;DHT22;5378;53.206;13.316;2024-02-26T12:58:03;10.30;99.90
10660;DHT22;5378;53.206;13.316;2024-02-26T13:00:52;10.40;99.90
10660;DHT22;5378;53.206;13.316;2024-02-26T13:03:39;10.30;99.90
10660;DHT22;5378;53.206;13.316;2024-02-26T13:06:27;10.30;99.90
10660;DHT22;5378;53.206;13.316;2024-02-26T13:09:14;10.40;99.90
10660;DHT22;5378;53.206;13.316;2024-02-26T13:12:04;10.40;99.90
10660;DHT22;5378;53.206;13.316;2024-02-26T13:14:59;10.40;99.90
10660;DHT22;5378;53.206;13.316;2024-02-26T13:17:48;10.40;99.90
10660;DHT22;5378;53.206;13.316;2024-02-26T13:20:35;10.40;99.90
10660;DHT22;5378;53.206;13.316;2024-02-26T13:23:22;10.30;99.90
10660;DHT22;5378;53.206;13.316;2024-02-26T13:26:12;10.20;99.90
10660;DHT22;5378;53.206;13.316;2024-02-26T13:29:00;10.30;99.90
10660;DHT22;5378;53.206;13.316;2024-02-26T13:31:48;10.30;99.90
10660;DHT22;5378;53.206;13.316;2024-02-26T13:34:36;10.20;99.90
10660;DHT22;5378;53.206;13.316;2024-02-26T13:37:23;10.20;99.90
10660;DHT22;5378;53.206;13.316;2024-02-26T13:40:11;10.10;99.90
10660;DHT22;5378;53.206;13.316;2024-02-26T13:42:58;10.10;99.90
10660;DHT22;5378;53.206;13.316;2024-02-26T13:45:45;10.00;99.90
10660;DHT22;5378;53.206;13.316;2024-02-26T13:48:33;10.00;99.90
10660;DHT22;5378;53.206;13.316;2024-02-26T13:51:21;10.00;99.90
10660;DHT22;5378;53.206;13.316;2024-02-26T13:54:08;10.00;99.90
10660;DHT22;5378;53.206;13.316;2024-02-26T13:56:56;10.10;99.90
10660;DHT22;5378;53.206;13.316;2024-02-26T13:59:43;9.90;99.90
10660;DHT22;5378;53.206;13.316;2024-02-26T14:02:30;10.00;99.90
10660;DHT22;5378;53.206;13.316;2024-02-26T14:05:17;10.00;99.90
10660;DHT22;5378;53.206;13.316;2024-02-26T14:08:06;10.00;99.90
10660;DHT22;5378;53.206;13.316;2024-02-26T14:10:53;10.10;99.90
10660;DHT22;5378;53.206;13.316;2024-02-26T14:13:41;10.10;99.90
10660;DHT22;5378;53.206;13.316;2024-02-26T14:16:29;10.10;99.90
10660;DHT22;5378;53.206;13.316;2024-02-26T14:19:17;10.10;99.90
10660;DHT22;5378;53.206;13.316;2024-02-26T14:22:04;10.20;99.90
10660;DHT22;5378;53.206;13.316;2024-02-26T14:24:52;10.10;99.90
10660;DHT22;5378;53.206;13.316;2024-02-26T14:27:40;10.10;99.90
10660;DHT22;5378;53.206;13.316;2024-02-26T14:30:27;9.90;99.90
10660;DHT22;5378;53.206;13.316;2024-02-26T14:33:14;9.90;99.90
10660;DHT22;5378;53.206;13.316;2024-02-26T14:36:02;9.90;99.90
10660;DHT22;5378;53.206;13.316;2024-02-26T14:38:49;10.00;99.90
10660;DHT22;5378;53.206;13.316;2024-02-26T14:41:38;10.20;99.90
10660;DHT22;5378;53.206;13.316;2024-02-26T14:44:25;10.20;99.90
10660;DHT22;5378;53.206;13.316;2024-02-26T14:47:12;10.30;99.90
10660;DHT22;5378;53.206;13.316;2024-02-26T14:49:59;10.20;99.90
10660;DHT22;5378;53.206;13.316;2024-02-26T14:52:46;10.10;99.90
10660;DHT22;5378;53.206;13.316;2024-02-26T14:55:34;10.20;99.90
10660;DHT22;5378;53.206;13.316;2024-02-26T14:58:23;10.20;99.90
10660;DHT22;5378;53.206;13.316;2024-02-26T15:01:09;10.20;99.90
10660;DHT22;5378;53.206;13.316;2024-02-26T15:03:57;10.20;99.90
10660;DHT22;5378;53.206;13.316;2024-02-26T15:06:45;10.20;99.90
10660;DHT22;5378;53.206;13.316;2024-02-26T15:09:32;10.20;99.90
10660;DHT22;5378;53.206;13.316;2024-02-26T15:12:20;9.90;99.90
10660;DHT22;5378;53.206;13.316;2024-02-26T15:15:11;9.90;99.90
10660;DHT22;5378;53.206;13.316;2024-02-26T15:17:58;9.80;99.90
10660;DHT22;5378;53.206;13.316;2024-02-26T15:20:46;9.60;99.90
10660;DHT22;5378;53.206;13.316;2024-02-26T15:23:32;9.60;99.90
10660;DHT22;5378;53.206;13.316;2024-02-26T15:26:21;9.60;99.90
10660;DHT22;5378;53.206;13.316;2024-02-26T15:29:08;9.50;99.90
10660;DHT22;5378;53.206;13.316;2024-02-26T15:31:57;9.40;99.90
10660;DHT22;5378;53.206;13.316;2024-02-26T15:34:44;9.30;99.90
10660;DHT22;5378;53.206;13.316;2024-02-26T15:37:31;9.20;99.90
10660;DHT22;5378;53.206;13.316;2024-02-26T15:40:19;9.20;99.90
10660;DHT22;5378;53.206;13.316;2024-02-26T15:43:07;9.20;99.90
10660;DHT22;5378;53.206;13.316;2024-02-26T15:45:55;9.20;99.90
10660;DHT22;5378;53.206;13.316;2024-02-26T15:48:44;9.20;99.90
10660;DHT22;5378;53.206;13.316;2024-02-26T15:51:31;9.20;99.90
10660;DHT22;5378;53.206;13.316;2024-02-26T15:54:18;9.20;99.90
10660;DHT22;5378;53.206;13.316;2024-02-26T15:57:05;9.10;99.90
10660;DHT22;5378;53.206;13.316;2024-02-26T15:59:52;9.00;99.90
10660;DHT22;5378;53.206;13.316;2024-02-26T16:02:41;9.00;99.90
10660;DHT22;5378;53.206;13.316;2024-02-26T16:05:29;8.90;99.90
10660;DHT22;5378;53.206;13.316;2024-02-26T16:08:18;8.80;99.90
10660;DHT22;5378;53.206;13.316;2024-02-26T16:11:06;8.70;99.90
10660;DHT22;5378;53.206;13.316;2024-02-26T16:13:58;8.70;99.90
10660;DHT22;5378;53.206;13.316;2024-02-26T16:16:52;8.60;99.90
10660;DHT22;5378;53.206;13.316;2024-02-26T16:19:40;8.60;99.90
10660;DHT22;5378;53.206;13.316;2024-02-26T16:22:29;8.70;99.90
10660;DHT22;5378;53.206;13.316;2024-02-26T16:25:17;8.70;99.90
10660;DHT22;5378;53.206;13.316;2024-02-26T16:28:05;8.70;99.90
10660;DHT22;5378;53.206;13.316;2024-02-26T16:30:52;8.60;99.90
10660;DHT22;5378;53.206;13.316;2024-02-26T16:33:39;8.70;99.90
10660;DHT22;5378;53.206;13.316;2024-02-26T16:36:26;8.70;99.90
10660;DHT22;5378;53.206;13.316;2024-02-26T16:39:15;8.60;99.90
10660;DHT22;5378;53.206;13.316;2024-02-26T16:42:03;8.60;99.90
10660;DHT22;5378;53.206;13.316;2024-02-26T16:44:50;8.60;99.90
10660;DHT22;5378;53.206;13.316;2024-02-26T16:47:37;8.60;99.90
10660;DHT22;5378;53.206;13.316;2024-02-26T16:50:24;8.50;99.90
10660;DHT22;5378;53.206;13.316;2024-02-26T16:53:12;8.40;99.90
10660;DHT22;5378;53.206;13.316;2024-02-26T16:56:00;8.30;99.90
10660;DHT22;5378;53.206;13.316;2024-02-26T16:58:47;8.30;99.90
10660;DHT22;5378;53.206;13.316;2024-02-26T17:01:35;8.30;99.90
10660;DHT22;5378;53.206;13.316;2024-02-26T17:04:22;8.20;99.90
10660;DHT22;5378;53.206;13.316;2024-02-26T17:07:09;8.10;99.90
10660;DHT22;5378;53.206;13.316;2024-02-26T17:09:57;8.10;99.90
10660;DHT22;5378;53.206;13.316;2024-02-26T17:12:45;8.00;99.90
10660;DHT22;5378;53.206;13.316;2024-02-26T17:15:33;7.90;99.90
10660;DHT22;5378;53.206;13.316;2024-02-26T17:18:20;7.90;99.90
10660;DHT22;5378;53.206;13.316;2024-02-26T17:21:07;7.90;99.90
10660;DHT22;5378;53.206;13.316;2024-02-26T17:23:55;7.80;99.90
10660;DHT22;5378;53.206;13.316;2024-02-26T17:26:42;7.80;99.90
10660;DHT22;5378;53.206;13.316;2024-02-26T17:29:31;7.80;99.90
10660;DHT22;5378;53.206;13.316;2024-02-26T17:32:20;7.70;99.90
10660;DHT22;5378;53.206;13.316;2024-02-26T17:35:07;7.70;99.90
10660;DHT22;5378;53.206;13.316;2024-02-26T17:37:59;7.70;99.90
10660;DHT22;5378;53.206;13.316;2024-02-26T17:40:48;7.80;99.90
10660;DHT22;5378;53.206;13.316;2024-02-26T17:43:35;7.80;99.90
10660;DHT22;5378;53.206;13.316;2024-02-26T17:46:23;7.80;99.90
10660;DHT22;5378;53.206;13.316;2024-02-26T17:49:10;7.80;99.90
10660;DHT22;5378;53.206;13.316;2024-02-26T17:51:59;7.80;99.90
10660;DHT22;5378;53.206;13.316;2024-02-26T17:54:46;7.80;99.90